Time;durP1;ratioP1;P1;durP2;ratioP2;P2;SDS_P1;SDS_P2;PMS_P1;PMS_P2;Temp;Humidity;BMP_temperature;BMP_pressure;BME280_temperature;BME280_humidity;BME280_pressure;Samples;Min_cycle;Max_cycle;Signal;HPM_P1;HPM_P2
2022/06/15 00:01:35;;;;;;;0.40;0.20;;;;;;;16.30;56.96;100807.08;104121;1277;94315;-72
2022/06/15 00:04:03;;;;;;;0.40;0.20;;;;;;;16.23;57.07;100809.54;104132;1277;94497;-72
2022/06/15 00:06:37;;;;;;;0.40;0.20;;;;;;;16.23;57.01;100808.11;104040;1277;140091;-72
2022/06/15 00:09:07;;;;;;;0.40;0.20;;;;;;;16.17;57.22;100808.91;104261;1277;99395;-72
2022/06/15 00:11:38;;;;;;;0.40;0.20;;;;;;;16.16;57.29;100809.65;104152;1277;139179;-72
2022/06/15 00:14:31;;;;;;;0.40;0.20;;;;;;;16.10;57.50;100811.90;104218;1277;94368;-72
2022/06/15 00:16:59;;;;;;;0.40;0.20;;;;;;;16.07;57.52;100813.08;104162;1277;94280;-71
2022/06/15 00:19:28;;;;;;;0.40;0.20;;;;;;;16.03;57.57;100811.27;103984;1277;138131;-72
2022/06/15 00:21:56;;;;;;;0.40;0.20;;;;;;;16.04;57.83;100813.41;104100;1277;99592;-72
2022/06/15 00:24:24;;;;;;;0.40;0.20;;;;;;;16.02;57.83;100810.27;104016;1277;139099;-72
2022/06/15 00:26:52;;;;;;;0.40;0.20;;;;;;;16.00;57.69;100809.06;104087;1277;94599;-73
2022/06/15 00:29:19;;;;;;;0.40;0.20;;;;;;;15.92;57.97;100808.52;104061;1277;137904;-73
2022/06/15 00:31:48;;;;;;;0.40;0.20;;;;;;;15.88;58.06;100806.55;104085;1277;109859;-73
2022/06/15 00:34:16;;;;;;;0.40;0.20;;;;;;;15.80;58.38;100805.25;104233;1277;99401;-72
2022/06/15 00:36:44;;;;;;;0.40;0.20;;;;;;;15.85;58.34;100805.40;104048;1277;138989;-72
2022/06/15 00:39:12;;;;;;;0.40;0.20;;;;;;;15.91;58.06;100802.15;104171;1277;94819;-72
2022/06/15 00:41:43;;;;;;;0.40;0.20;;;;;;;15.86;58.33;100801.42;104008;1276;138332;-72
2022/06/15 00:44:16;;;;;;;0.40;0.20;;;;;;;15.83;58.48;100800.50;104143;1277;109063;-71
2022/06/15 00:46:56;;;;;;;0.40;0.20;;;;;;;15.86;58.50;100801.23;104270;1277;99424;-73
2022/06/15 00:49:39;;;;;;;0.40;0.20;;;;;;;15.93;58.43;100799.15;104094;1277;138729;-72
2022/06/15 00:52:17;;;;;;;0.40;0.20;;;;;;;15.91;58.47;100802.66;104091;1277;94626;-71
2022/06/15 00:54:49;;;;;;;0.40;0.20;;;;;;;15.82;58.69;100801.42;103986;1277;137914;-72
2022/06/15 00:57:17;;;;;;;0.40;0.20;;;;;;;15.81;58.72;100803.27;104083;1277;108544;-72
2022/06/15 00:59:55;;;;;;;0.40;0.20;;;;;;;15.75;59.21;100803.65;104008;1277;138920;-72
2022/06/15 01:02:24;;;;;;;0.40;0.20;;;;;;;15.78;58.98;100802.61;104487;1277;107812;-71
2022/06/15 01:05:00;;;;;;;0.40;0.20;;;;;;;15.69;59.06;100803.17;104124;1277;94311;-70
2022/06/15 01:07:28;;;;;;;0.40;0.20;;;;;;;15.61;59.43;100801.70;104062;1277;137762;-72
2022/06/15 01:10:16;;;;;;;0.40;0.20;;;;;;;15.64;59.30;100804.60;104134;1277;108832;-72
2022/06/15 01:13:06;;;;;;;0.40;0.20;;;;;;;15.66;59.41;100805.27;103993;1277;139428;-71
2022/06/15 01:15:59;;;;;;;0.40;0.20;;;;;;;15.70;59.19;100809.21;104044;1277;108784;-73
2022/06/15 01:18:45;;;;;;;0.40;0.20;;;;;;;15.57;59.52;100812.06;104522;1277;138034;-71
2022/06/15 01:21:24;;;;;;;0.40;0.20;;;;;;;15.54;59.64;100813.61;104357;1277;94802;-71
2022/06/15 01:24:20;;;;;;;0.40;0.20;;;;;;;15.57;59.62;100813.70;104040;1277;137361;-72
2022/06/15 01:27:00;;;;;;;0.40;0.20;;;;;;;15.50;59.83;100810.90;104092;1277;98865;-72
2022/06/15 01:30:10;;;;;;;0.40;0.20;;;;;;;15.53;59.66;100808.30;103994;1277;137899;-72
2022/06/15 01:33:09;;;;;;;0.40;0.20;;;;;;;15.42;59.89;100806.58;104137;1277;94814;-72
2022/06/15 01:35:49;;;;;;;0.40;0.20;;;;;;;15.39;60.10;100806.00;103860;1277;138221;-71
2022/06/15 01:38:31;;;;;;;0.40;0.20;;;;;;;15.37;60.13;100804.98;104128;1277;108405;-71
2022/06/15 01:41:18;;;;;;;0.40;0.30;;;;;;;15.28;60.39;100801.98;104128;1277;99410;-70
2022/06/15 01:44:02;;;;;;;0.40;0.20;;;;;;;15.28;60.50;100803.77;104073;1277;108841;-70
2022/06/15 01:46:31;;;;;;;0.40;0.30;;;;;;;15.29;60.52;100802.47;104093;1277;94339;-71
2022/06/15 01:49:00;;;;;;;0.40;0.20;;;;;;;15.22;60.65;100798.98;104018;1277;138260;-71
2022/06/15 01:51:34;;;;;;;0.40;0.20;;;;;;;15.19;60.62;100798.55;104185;1277;108365;-71
2022/06/15 01:54:13;;;;;;;0.40;0.20;;;;;;;15.17;60.55;100801.31;103978;1277;138352;-71
2022/06/15 01:56:45;;;;;;;0.40;0.20;;;;;;;15.17;60.77;100802.89;104088;1277;109561;-71
2022/06/15 01:59:18;;;;;;;0.40;0.20;;;;;;;15.19;60.66;100805.35;103981;1277;138483;-70
2022/06/15 02:02:04;;;;;;;0.40;0.20;;;;;;;15.15;60.78;100806.73;104078;1278;94772;-71
2022/06/15 02:04:37;;;;;;;0.40;0.20;;;;;;;15.02;60.87;100807.08;104162;1277;107334;-71
2022/06/15 02:07:10;;;;;;;0.40;0.20;;;;;;;14.91;61.26;100804.27;104059;1277;140956;-71
2022/06/15 02:10:05;;;;;;;0.40;0.20;;;;;;;14.86;61.33;100801.76;104283;1277;108996;-71
2022/06/15 02:12:39;;;;;;;0.40;0.20;;;;;;;14.85;61.64;100803.77;104181;1277;138359;-70
2022/06/15 02:15:10;;;;;;;0.40;0.20;;;;;;;14.79;61.62;100803.28;104329;1277;95017;-71
2022/06/15 02:17:43;;;;;;;0.40;0.30;;;;;;;14.76;61.74;100805.73;104045;1277;139170;-71
2022/06/15 02:20:20;;;;;;;0.40;0.20;;;;;;;14.75;61.91;100807.39;104303;1277;99580;-71
2022/06/15 02:22:51;;;;;;;0.40;0.30;;;;;;;14.69;62.00;100808.30;104218;1277;108873;-71
2022/06/15 02:25:24;;;;;;;0.40;0.20;;;;;;;14.63;62.22;100812.45;104542;1277;137815;-70
2022/06/15 02:27:56;;;;;;;0.40;0.30;;;;;;;14.57;62.38;100814.96;104254;1277;94696;-71
2022/06/15 02:30:26;;;;;;;0.40;0.30;;;;;;;14.53;62.43;100817.94;104154;1277;137683;-71
2022/06/15 02:33:10;;;;;;;0.40;0.20;;;;;;;14.50;62.55;100819.52;104246;1277;99292;-70
2022/06/15 02:35:39;;;;;;;0.40;0.20;;;;;;;14.48;62.74;100821.17;104103;1277;138707;-71
2022/06/15 02:38:12;;;;;;;0.40;0.30;;;;;;;14.48;62.81;100824.41;104182;1277;94441;-71
2022/06/15 02:40:40;;;;;;;0.40;0.20;;;;;;;14.45;62.98;100827.53;104214;1277;94626;-70
2022/06/15 02:43:10;;;;;;;0.40;0.30;;;;;;;14.47;63.07;100826.95;104124;1277;138461;-71
2022/06/15 02:45:41;;;;;;;0.40;0.20;;;;;;;14.52;63.19;100829.78;104303;1277;99405;-72
2022/06/15 02:48:11;;;;;;;0.40;0.20;;;;;;;14.66;62.84;100827.52;104190;1277;137773;-70
2022/06/15 02:50:51;;;;;;;0.40;0.20;;;;;;;14.76;62.76;100829.67;104217;1277;94229;-72
2022/06/15 02:53:23;;;;;;;0.40;0.20;;;;;;;14.82;62.52;100825.52;104102;1277;138177;-72
2022/06/15 02:55:53;;;;;;;0.40;0.20;;;;;;;14.90;62.37;100826.30;104231;1277;108367;-70
2022/06/15 02:58:42;;;;;;;0.40;0.20;;;;;;;15.02;62.07;100826.72;104221;1278;99296;-72
2022/06/15 03:01:10;;;;;;;0.40;0.20;;;;;;;15.09;61.85;100827.20;104544;1277;138763;-72
2022/06/15 03:03:39;;;;;;;0.40;0.20;;;;;;;15.12;61.76;100831.02;104175;1277;94948;-72
2022/06/15 03:06:19;;;;;;;0.40;0.20;;;;;;;15.24;61.43;100830.02;104128;1277;138166;-71
2022/06/15 03:08:49;;;;;;;0.40;0.20;;;;;;;15.27;61.10;100832.07;104259;1277;107334;-70
2022/06/15 03:11:40;;;;;;;0.40;0.20;;;;;;;15.28;61.18;100831.65;104037;1278;138064;-70
2022/06/15 03:14:27;;;;;;;0.40;0.30;;;;;;;15.23;61.27;100833.81;104203;1277;108789;-71
2022/06/15 03:16:56;;;;;;;0.40;0.20;;;;;;;15.26;61.16;100832.42;104252;1277;94333;-71
2022/06/15 03:19:27;;;;;;;0.40;0.20;;;;;;;15.29;60.85;100831.96;104129;1277;138159;-71
2022/06/15 03:22:01;;;;;;;0.40;0.20;;;;;;;15.25;60.92;100836.26;104196;1278;108376;-71
2022/06/15 03:24:31;;;;;;;0.40;0.20;;;;;;;15.22;61.18;100837.41;104093;1278;138113;-72
2022/06/15 03:26:59;;;;;;;0.40;0.20;;;;;;;15.21;61.08;100838.54;104196;1277;108766;-73
2022/06/15 03:29:30;;;;;;;0.40;0.20;;;;;;;15.28;60.98;100841.14;104171;1277;138975;-71
2022/06/15 03:32:03;;;;;;;0.40;0.20;;;;;;;15.33;60.97;100837.90;104202;1277;94705;-71
2022/06/15 03:34:35;;;;;;;0.40;0.20;;;;;;;15.36;60.99;100841.70;104247;1277;108436;-71
2022/06/15 03:37:04;;;;;;;0.40;0.20;;;;;;;15.30;60.76;100842.30;104148;1277;139066;-71
2022/06/15 03:39:32;;;;;;;0.40;0.20;;;;;;;15.33;60.87;100842.55;104282;1277;108894;-71
2022/06/15 03:42:14;;;;;;;0.40;0.20;;;;;;;15.44;60.79;100841.59;104158;1277;138808;-71
2022/06/15 03:44:43;;;;;;;0.40;0.20;;;;;;;15.47;60.47;100842.36;104238;1277;94307;-71
2022/06/15 03:47:13;;;;;;;0.40;0.20;;;;;;;15.39;60.25;100844.65;104208;1277;138763;-73
2022/06/15 03:49:42;;;;;;;0.40;0.20;;;;;;;15.32;60.71;100844.37;104224;1277;99397;-72
2022/06/15 03:52:11;;;;;;;0.40;0.20;;;;;;;15.36;60.71;100845.30;104231;1277;109315;-71
2022/06/15 03:54:39;;;;;;;0.40;0.20;;;;;;;15.44;60.48;100846.23;104199;1277;139137;-71
2022/06/15 03:57:10;;;;;;;0.40;0.20;;;;;;;15.46;60.20;100845.45;104228;1278;94801;-70
2022/06/15 03:59:39;;;;;;;0.40;0.20;;;;;;;15.43;60.11;100845.39;104024;1277;141316;-71
2022/06/15 04:02:28;;;;;;;0.40;0.20;;;;;;;15.40;60.21;100839.95;104140;1277;99589;-72
2022/06/15 04:04:58;;;;;;;0.40;0.20;;;;;;;15.41;60.04;100835.08;104214;1277;108759;-71
2022/06/15 04:10:14;;;;;;;0.40;0.20;;;;;;;15.42;59.68;100832.02;104150;1279;94316;-71
2022/06/15 04:12:45;;;;;;;0.40;0.30;;;;;;;15.41;59.92;100834.91;104110;1277;138631;-71
2022/06/15 04:15:16;;;;;;;0.40;0.20;;;;;;;15.46;60.09;100835.21;104199;1277;99852;-70
2022/06/15 04:17:52;;;;;;;0.40;0.20;;;;;;;15.56;60.19;100835.57;104116;1277;138570;-71
2022/06/15 04:20:42;;;;;;;0.40;0.20;;;;;;;15.67;59.71;100838.35;104222;1277;94408;-71
2022/06/15 04:23:19;;;;;;;0.40;0.20;;;;;;;15.64;59.73;100837.56;104078;1277;138392;-73
2022/06/15 04:25:52;;;;;;;0.40;0.20;;;;;;;15.75;59.59;100838.55;104221;1277;108475;-72
2022/06/15 04:28:33;;;;;;;0.40;0.20;;;;;;;15.69;59.41;100837.74;104167;1277;97635;-72
2022/06/15 04:31:07;;;;;;;0.40;0.20;;;;;;;15.65;59.63;100836.66;104120;1277;139685;-71
2022/06/15 04:33:38;;;;;;;0.40;0.20;;;;;;;15.74;59.65;100839.15;104241;1277;95497;-71
2022/06/15 04:36:07;;;;;;;0.40;0.20;;;;;;;15.84;59.35;100839.09;104056;1277;137825;-71
2022/06/15 04:38:38;;;;;;;0.40;0.20;;;;;;;15.91;59.12;100840.06;104138;1278;108296;-70
2022/06/15 04:41:07;;;;;;;0.40;0.20;;;;;;;15.94;59.23;100842.45;104232;1277;98404;-70
2022/06/15 04:43:35;;;;;;;0.40;0.20;;;;;;;15.98;59.26;100842.66;104074;1277;138410;-70
2022/06/15 04:46:07;;;;;;;0.40;0.20;;;;;;;16.06;59.15;100843.06;104182;1277;94618;-73
2022/06/15 04:48:35;;;;;;;0.40;0.20;;;;;;;16.16;59.15;100843.34;104017;1277;138506;-71
2022/06/15 04:51:23;;;;;;;0.40;0.20;;;;;;;16.20;58.86;100841.90;104184;1277;108351;-71
2022/06/15 04:53:54;;;;;;;0.40;0.20;;;;;;;16.18;58.51;100838.95;104105;1277;138605;-71
2022/06/15 04:56:23;;;;;;;0.40;0.20;;;;;;;16.18;58.82;100842.16;104157;1277;109650;-71
2022/06/15 04:58:51;;;;;;;0.40;0.20;;;;;;;16.22;58.80;100843.61;104111;1277;94510;-72
2022/06/15 05:01:20;;;;;;;0.40;0.20;;;;;;;16.26;58.73;100845.79;104043;1277;138447;-72
2022/06/15 05:03:48;;;;;;;0.40;0.20;;;;;;;16.32;58.67;100843.38;104177;1277;107332;-71
2022/06/15 05:06:17;;;;;;;0.40;0.20;;;;;;;16.37;58.51;100843.70;104104;1277;140765;-70
2022/06/15 05:08:45;;;;;;;0.40;0.20;;;;;;;16.40;58.39;100843.02;104170;1277;108607;-72
2022/06/15 05:11:13;;;;;;;0.40;0.20;;;;;;;16.39;58.40;100847.02;104086;1276;138535;-71
2022/06/15 05:13:41;;;;;;;0.40;0.20;;;;;;;16.42;58.65;100847.79;104177;1277;94808;-72
2022/06/15 05:16:09;;;;;;;0.40;0.20;;;;;;;16.47;58.43;100848.82;104141;1277;108398;-72
2022/06/15 05:18:38;;;;;;;0.40;0.20;;;;;;;16.56;58.40;100851.47;103821;1277;285667;-72
2022/06/15 05:21:11;;;;;;;0.40;0.20;;;;;;;16.75;58.18;100851.02;104231;1277;109235;-71
2022/06/15 05:23:39;;;;;;;0.40;0.20;;;;;;;16.88;58.09;100849.32;104102;1277;138115;-72
2022/06/15 05:26:12;;;;;;;0.40;0.20;;;;;;;16.97;57.57;100849.48;104221;1277;94290;-71
2022/06/15 05:28:46;;;;;;;0.40;0.20;;;;;;;16.94;57.37;100853.04;104191;1277;109015;-71
2022/06/15 05:31:18;;;;;;;0.40;0.20;;;;;;;16.97;57.48;100850.92;104043;1277;138252;-71
2022/06/15 05:33:56;;;;;;;0.40;0.20;;;;;;;17.08;57.26;100851.68;104150;1277;108750;-73
2022/06/15 05:36:29;;;;;;;0.40;0.20;;;;;;;17.12;57.11;100850.79;104084;1277;138278;-71
2022/06/15 05:38:57;;;;;;;0.40;0.20;;;;;;;17.17;57.38;100851.26;104262;1277;94303;-71
2022/06/15 05:41:26;;;;;;;0.40;0.20;;;;;;;17.19;56.98;100854.42;104112;1277;138342;-71
2022/06/15 05:46:30;;;;;;;0.40;0.20;;;;;;;17.30;56.95;100855.89;104166;1277;109209;-72
2022/06/15 05:49:10;;;;;;;0.40;0.20;;;;;;;17.34;56.77;100856.05;104083;1277;138671;-71
2022/06/15 05:51:38;;;;;;;0.40;0.20;;;;;;;17.37;56.77;100854.63;104358;1277;94499;-71
2022/06/15 05:54:07;;;;;;;0.40;0.20;;;;;;;17.45;56.53;100856.59;104119;1278;138050;-71
2022/06/15 05:56:35;;;;;;;0.40;0.20;;;;;;;17.49;56.49;100857.65;104173;1277;99675;-71
2022/06/15 05:59:03;;;;;;;0.40;0.20;;;;;;;17.50;56.24;100857.30;104154;1277;109019;-71
2022/06/15 06:01:36;;;;;;;0.40;0.20;;;;;;;17.48;56.21;100854.34;104069;1277;137843;-71
2022/06/15 06:04:05;;;;;;;0.40;0.10;;;;;;;17.52;56.59;100858.41;104536;1277;94472;-72
2022/06/15 06:06:34;;;;;;;0.40;0.10;;;;;;;17.60;56.32;100860.58;104225;1277;138278;-71
2022/06/15 06:09:02;;;;;;;0.40;0.20;;;;;;;17.64;56.27;100859.67;104224;1277;99543;-71
2022/06/15 06:11:30;;;;;;;0.40;0.20;;;;;;;17.70;55.95;100861.50;104018;1277;138409;-71
2022/06/15 06:13:58;;;;;;;0.40;0.10;;;;;;;17.73;55.71;100868.75;104132;1277;94399;-71
2022/06/15 06:16:26;;;;;;;0.40;0.10;;;;;;;17.68;55.49;100863.95;104176;1277;94591;-71
2022/06/15 06:18:54;;;;;;;0.40;0.20;;;;;;;17.69;55.91;100867.32;104086;1277;137987;-71
2022/06/15 06:21:22;;;;;;;0.40;0.10;;;;;;;17.72;55.76;100867.50;104139;1277;99437;-70
2022/06/15 06:23:50;;;;;;;0.40;0.20;;;;;;;17.65;55.87;100860.14;104112;1277;138023;-72
2022/06/15 06:26:25;;;;;;;0.40;0.10;;;;;;;17.68;56.12;100860.15;104188;1277;94817;-71
2022/06/15 06:28:54;;;;;;;0.40;0.10;;;;;;;17.68;56.12;100858.02;104152;1277;94610;-71
2022/06/15 06:31:22;;;;;;;0.40;0.10;;;;;;;17.76;56.47;100863.77;104068;1277;138064;-72
2022/06/15 06:33:51;;;;;;;0.40;0.10;;;;;;;17.76;55.76;100863.75;104193;1277;99383;-70
2022/06/15 06:36:34;;;;;;;0.40;0.10;;;;;;;17.82;55.73;100861.82;104017;1277;138249;-71
2022/06/15 06:39:06;;;;;;;0.40;0.10;;;;;;;17.95;55.52;100861.39;104218;1277;94797;-73
2022/06/15 06:41:34;;;;;;;0.40;0.20;;;;;;;17.95;55.62;100864.30;104009;1277;138724;-72
2022/06/15 06:44:07;;;;;;;0.40;0.10;;;;;;;17.95;55.54;100870.02;104128;1277;108346;-71
2022/06/15 06:46:35;;;;;;;0.40;0.10;;;;;;;17.94;55.42;100868.98;104206;1277;98412;-71
2022/06/15 06:49:05;;;;;;;0.40;0.10;;;;;;;18.00;55.55;100867.06;104415;1277;139895;-72
2022/06/15 06:51:37;;;;;;;0.40;0.10;;;;;;;18.13;55.51;100866.77;104263;1277;94450;-71
2022/06/15 06:54:07;;;;;;;0.40;0.10;;;;;;;18.19;55.39;100863.45;104385;1277;138251;-72
2022/06/15 06:56:36;;;;;;;0.40;0.10;;;;;;;18.29;55.02;100864.39;104850;1277;108417;-71
2022/06/15 06:59:06;;;;;;;0.40;0.10;;;;;;;18.40;54.67;100861.13;104248;1279;99734;-71
2022/06/15 07:01:40;;;;;;;0.40;0.10;;;;;;;18.53;54.35;100856.66;104187;1277;137658;-70
2022/06/15 07:04:11;;;;;;;0.40;0.10;;;;;;;18.60;53.87;100859.19;104241;1277;94303;-70
2022/06/15 07:06:40;;;;;;;0.40;0.20;;;;;;;18.49;53.41;100864.60;104337;1277;137971;-72
2022/06/15 07:09:09;;;;;;;0.40;0.10;;;;;;;18.48;53.89;100867.71;104305;1279;107402;-71
2022/06/15 07:11:39;;;;;;;0.40;0.10;;;;;;;18.50;53.41;100868.67;104043;1279;138592;-71
2022/06/15 07:14:08;;;;;;;0.40;0.10;;;;;;;18.49;53.18;100866.77;104335;1277;108802;-71
2022/06/15 07:16:41;;;;;;;0.40;0.20;;;;;;;18.46;53.47;100865.10;104255;1279;94320;-71
2022/06/15 07:19:11;;;;;;;0.40;0.10;;;;;;;18.48;53.26;100866.85;104174;1277;137834;-71
2022/06/15 07:21:40;;;;;;;0.40;0.10;;;;;;;18.50;53.06;100865.83;104315;1277;108907;-71
2022/06/15 07:24:08;;;;;;;0.40;0.20;;;;;;;18.56;53.14;100862.97;104144;1277;138023;-72
2022/06/15 07:26:42;;;;;;;0.40;0.10;;;;;;;18.68;53.23;100859.67;104270;1277;108108;-72
2022/06/15 07:29:16;;;;;;;0.40;0.10;;;;;;;18.76;52.33;100855.84;104852;1277;94227;-70
2022/06/15 07:31:52;;;;;;;0.40;0.10;;;;;;;18.77;52.84;100855.40;104392;1277;94961;-71
2022/06/15 07:34:21;;;;;;;0.40;0.10;;;;;;;18.85;52.78;100857.84;104309;1277;106502;-71
2022/06/15 07:36:50;;;;;;;0.40;0.10;;;;;;;19.00;52.78;100858.73;104214;1277;138552;-70
2022/06/15 07:39:22;;;;;;;0.40;0.10;;;;;;;19.05;52.11;100859.32;104050;1277;138451;-71
2022/06/15 07:41:51;;;;;;;0.40;0.10;;;;;;;19.03;51.53;100860.54;104260;1277;94710;-72
2022/06/15 07:44:20;;;;;;;0.40;0.10;;;;;;;19.08;51.20;100865.33;104242;1279;95895;-72
2022/06/15 07:49:53;;;;;;;0.40;0.10;;;;;;;19.06;50.97;100852.98;104135;1277;138096;-70
2022/06/15 07:49:56;;;;;;;0.40;0.20;;;;;;;19.16;51.11;100849.94;104329;1278;99462;-70
2022/06/15 07:52:47;;;;;;;0.40;0.20;;;;;;;19.35;51.51;100846.70;104131;1277;138590;-69
2022/06/15 07:55:19;;;;;;;0.40;0.10;;;;;;;19.48;51.62;100849.77;104791;1277;94240;-72
2022/06/15 07:57:47;;;;;;;0.40;0.10;;;;;;;19.53;51.22;100851.45;104145;1277;139414;-71
2022/06/15 08:00:16;;;;;;;0.40;0.10;;;;;;;19.61;51.00;100847.09;104218;1277;108370;-72
2022/06/15 08:02:45;;;;;;;0.40;0.10;;;;;;;19.75;50.58;100846.27;104255;1277;99570;-70
2022/06/15 08:05:13;;;;;;;0.40;0.10;;;;;;;19.90;50.27;100849.43;104167;1277;138649;-70
2022/06/15 08:07:44;;;;;;;0.40;0.10;;;;;;;19.88;49.52;100852.55;104194;1278;94410;-70
2022/06/15 08:10:15;;;;;;;0.40;0.10;;;;;;;19.92;49.36;100852.19;104366;1277;138485;-71
2022/06/15 08:12:43;;;;;;;0.40;0.10;;;;;;;19.94;48.85;100849.17;104330;1277;108420;-71
2022/06/15 08:15:12;;;;;;;0.40;0.10;;;;;;;19.94;48.15;100848.83;104184;1277;139200;-70
2022/06/15 08:17:47;;;;;;;0.40;0.10;;;;;;;20.04;48.47;100845.67;104219;1276;107730;-71
2022/06/15 08:20:29;;;;;;;0.40;0.10;;;;;;;20.15;48.92;100845.40;104261;1277;94609;-72
2022/06/15 08:23:04;;;;;;;0.40;0.10;;;;;;;20.23;47.57;100843.85;104191;1277;138699;-70
2022/06/15 08:25:38;;;;;;;0.40;0.10;;;;;;;20.29;48.34;100843.34;104200;1277;108421;-71
2022/06/15 08:28:07;;;;;;;0.40;0.10;;;;;;;20.40;47.98;100844.81;104136;1277;140216;-71
2022/06/15 08:30:37;;;;;;;0.40;0.10;;;;;;;20.53;47.35;100841.71;104218;1277;108814;-71
2022/06/15 08:33:07;;;;;;;0.40;0.10;;;;;;;20.67;47.79;100845.52;104216;1280;94256;-71
2022/06/15 08:35:36;;;;;;;0.40;0.10;;;;;;;20.69;48.21;100846.13;104298;1279;94389;-72
2022/06/15 08:38:06;;;;;;;0.40;0.10;;;;;;;20.71;47.96;100843.34;104310;1277;108513;-71
2022/06/15 08:40:57;;;;;;;0.40;0.10;;;;;;;20.93;47.17;100841.42;104157;1279;139397;-70
2022/06/15 08:44:15;;;;;;;0.40;0.10;;;;;;;21.12;47.19;100842.76;104280;1278;108777;-72
2022/06/15 08:47:01;;;;;;;0.40;0.10;;;;;;;21.12;45.31;100840.61;103214;1280;138919;-72
2022/06/15 08:49:35;;;;;;;0.40;0.10;;;;;;;21.28;45.96;100841.58;104268;1279;94660;-71
2022/06/15 08:52:11;;;;;;;0.40;0.10;;;;;;;21.23;45.93;100844.82;104112;1279;138655;-71
2022/06/15 08:55:02;;;;;;;0.40;0.10;;;;;;;21.16;46.67;100843.45;104177;1279;99652;-71
2022/06/15 08:57:50;;;;;;;0.40;0.10;;;;;;;21.08;46.78;100848.61;104067;1279;138826;-71
2022/06/15 09:00:26;;;;;;;0.70;0.30;;;;;;;21.08;46.51;100849.00;104223;1279;94315;-69
2022/06/15 09:03:04;;;;;;;0.40;0.10;;;;;;;21.18;47.04;100845.29;104192;1280;94386;-71
2022/06/15 09:05:42;;;;;;;0.40;0.10;;;;;;;21.24;47.05;100847.45;104064;1279;138450;-70
2022/06/15 09:08:22;;;;;;;0.40;0.10;;;;;;;21.26;46.55;100850.89;104246;1279;99887;-73
2022/06/15 09:11:17;;;;;;;0.40;0.10;;;;;;;21.11;45.92;100858.37;104135;1279;137611;-73
2022/06/15 09:14:07;;;;;;;0.40;0.10;;;;;;;21.41;46.77;100854.45;104199;1279;94399;-72
2022/06/15 09:16:50;;;;;;;0.40;0.10;;;;;;;22.11;45.80;100858.77;104112;1279;137757;-72
2022/06/15 09:19:33;;;;;;;0.40;0.10;;;;;;;22.88;44.76;100852.42;104189;1279;108415;-70
2022/06/15 09:22:11;;;;;;;0.40;0.10;;;;;;;23.45;42.03;100847.81;104101;1279;137886;-71
2022/06/15 09:24:52;;;;;;;0.40;0.10;;;;;;;23.65;42.38;100847.25;104243;1279;108903;-72
2022/06/15 09:27:37;;;;;;;0.40;0.10;;;;;;;24.21;39.60;100849.45;104074;1279;138229;-72
2022/06/15 09:30:21;;;;;;;0.40;0.10;;;;;;;24.55;38.63;100852.80;104185;1279;94588;-72
2022/06/15 09:33:04;;;;;;;0.40;0.10;;;;;;;25.10;39.00;100844.55;104266;1279;108485;-72
2022/06/15 09:35:37;;;;;;;0.40;0.10;;;;;;;25.62;38.88;100843.39;104134;1277;137705;-72
2022/06/15 09:38:10;;;;;;;0.40;0.10;;;;;;;25.81;37.50;100843.34;104238;1277;108914;-72
2022/06/15 09:40:51;;;;;;;0.40;0.00;;;;;;;26.15;37.24;100844.84;104068;1279;137932;-72
2022/06/15 09:43:51;;;;;;;0.40;0.10;;;;;;;26.94;36.22;100848.48;104179;1280;94323;-72
2022/06/15 09:46:23;;;;;;;0.40;0.00;;;;;;;27.71;33.89;100839.36;103955;1280;138867;-72
2022/06/15 09:48:57;;;;;;;0.40;0.00;;;;;;;27.52;33.98;100837.80;104369;1277;99536;-71
2022/06/15 09:51:46;;;;;;;0.40;0.00;;;;;;;26.64;35.37;100850.86;104160;1277;138306;-71
2022/06/15 09:54:39;;;;;;;0.40;0.00;;;;;;;25.80;36.02;100853.04;104267;1277;94657;-72
2022/06/15 09:57:08;;;;;;;0.40;0.00;;;;;;;25.07;37.00;100859.83;104290;1277;94443;-72
2022/06/15 09:59:36;;;;;;;0.40;0.00;;;;;;;24.66;37.97;100854.71;104279;1277;109014;-72
2022/06/15 10:02:15;;;;;;;0.40;0.10;;;;;;;24.30;38.78;100856.73;104277;1277;99343;-72
2022/06/15 10:04:49;;;;;;;0.40;0.00;;;;;;;24.06;39.01;100854.02;104127;1277;137696;-72
2022/06/15 10:07:28;;;;;;;0.40;0.10;;;;;;;24.13;39.54;100850.55;104321;1277;94312;-72
2022/06/15 10:10:18;;;;;;;0.40;0.10;;;;;;;24.52;38.88;100850.86;104345;1277;138135;-72
2022/06/15 10:13:02;;;;;;;0.40;0.10;;;;;;;24.84;38.25;100849.29;104451;1277;108553;-72
2022/06/15 10:15:35;;;;;;;0.40;0.00;;;;;;;25.18;37.21;100847.50;104231;1277;138048;-72
2022/06/15 10:18:18;;;;;;;0.40;0.00;;;;;;;25.03;37.34;100847.96;104339;1277;108832;-72
2022/06/15 10:20:59;;;;;;;0.40;0.00;;;;;;;25.09;36.86;100845.11;104333;1277;94699;-71
2022/06/15 10:23:38;;;;;;;0.40;0.10;;;;;;;25.92;36.82;100842.56;104284;1277;138327;-72
2022/06/15 10:26:11;;;;;;;0.40;0.00;;;;;;;26.94;34.24;100842.80;104388;1277;107410;-72
2022/06/15 10:28:41;;;;;;;0.40;0.00;;;;;;;27.02;34.16;100845.54;104476;1277;137973;-72
2022/06/15 10:31:14;;;;;;;0.40;0.10;;;;;;;26.87;34.45;100840.66;104344;1277;108814;-72
2022/06/15 10:33:47;;;;;;;0.40;0.00;;;;;;;27.69;33.53;100834.64;104257;1277;138600;-72
2022/06/15 10:36:38;;;;;;;0.40;0.00;;;;;;;28.26;32.27;100832.90;104894;1277;94404;-71
2022/06/15 10:39:18;;;;;;;0.40;0.00;;;;;;;28.40;30.97;100831.18;104387;1277;108378;-72
2022/06/15 10:42:04;;;;;;;0.40;0.00;;;;;;;28.50;31.20;100827.16;104430;1277;100134;-72
2022/06/15 10:44:40;;;;;;;0.40;0.00;;;;;;;28.46;31.43;100828.60;104360;1277;108738;-71
2022/06/15 10:47:19;;;;;;;0.40;0.00;;;;;;;27.76;32.03;100831.64;104224;1277;137922;-71
2022/06/15 10:49:59;;;;;;;0.40;0.00;;;;;;;26.97;33.64;100840.83;104357;1277;94280;-72
2022/06/15 10:52:45;;;;;;;0.40;0.00;;;;;;;26.21;34.12;100840.53;104186;1277;137660;-72
2022/06/15 11:04:15;;;;;;;0.40;0.00;;;;;;;24.76;37.71;100851.61;104151;1277;137812;-69
2022/06/15 11:06:59;;;;;;;0.40;0.10;;;;;;;24.25;38.21;100855.35;104265;1277;108335;-69
2022/06/15 11:09:34;;;;;;;0.40;0.00;;;;;;;23.91;39.55;100852.74;104134;1277;138085;-70
2022/06/15 11:12:21;;;;;;;0.40;0.10;;;;;;;23.52;40.61;100852.02;104207;1277;108857;-69
2022/06/15 11:15:00;;;;;;;0.40;0.10;;;;;;;23.23;41.23;100851.22;104331;1277;94343;-70
2022/06/15 11:20:24;;;;;;;0.40;0.10;;;;;;;22.67;42.44;100850.25;104262;1277;109061;-69
2022/06/15 11:23:01;;;;;;;0.40;0.10;;;;;;;22.48;43.09;100854.64;104239;1277;137944;-70
2022/06/15 11:25:42;;;;;;;0.40;0.10;;;;;;;22.40;43.61;100853.08;104223;1277;108849;-70
2022/06/15 11:28:17;;;;;;;0.40;0.10;;;;;;;22.34;43.94;100853.79;104125;1277;137936;-71
2022/06/15 11:30:54;;;;;;;0.40;0.10;;;;;;;22.42;44.32;100852.39;104256;1277;94362;-71
2022/06/15 11:33:39;;;;;;;0.40;0.10;;;;;;;22.44;43.99;100852.42;104138;1277;138379;-70
2022/06/15 11:36:07;;;;;;;0.40;0.10;;;;;;;22.45;44.73;100854.73;104311;1277;98619;-69
2022/06/15 11:38:46;;;;;;;0.40;0.10;;;;;;;22.50;44.17;100850.48;103330;1277;108872;-70
2022/06/15 11:41:47;;;;;;;0.40;0.10;;;;;;;22.36;43.40;100846.23;104403;1278;138487;-70
2022/06/15 11:44:23;;;;;;;0.40;0.10;;;;;;;22.36;43.68;100843.32;104333;1278;94306;-68
2022/06/15 11:47:16;;;;;;;0.40;0.10;;;;;;;22.45;43.27;100843.64;104152;1278;137492;-70
2022/06/15 11:50:21;;;;;;;0.40;0.10;;;;;;;22.72;43.75;100839.45;104278;1278;99415;-70
2022/06/15 11:53:17;;;;;;;0.40;0.10;;;;;;;22.95;43.23;100834.70;104150;1277;137888;-69
2022/06/15 11:56:15;;;;;;;0.40;0.10;;;;;;;23.11;42.76;100826.73;104291;1277;94571;-70
2022/06/15 11:58:52;;;;;;;0.40;0.10;;;;;;;23.16;42.51;100828.36;104328;1278;137663;-70
2022/06/15 12:01:41;;;;;;;0.40;0.00;;;;;;;23.06;42.32;100825.21;104258;1278;108225;-70
2022/06/15 12:04:26;;;;;;;0.40;0.10;;;;;;;23.11;41.98;100831.08;104148;1277;138548;-70
2022/06/15 12:07:42;;;;;;;0.40;0.10;;;;;;;23.06;40.65;100830.29;104276;1278;108791;-70